Montezuma, Virginia
Current Conditions -  °F | °C
As of 3:15 PM on Wednesday 26 Nov 2014 (Local Time) from KVBW Reporting Station
Overcast Overcast  
Wind Chill: 33°   Ceiling: 300
Heat Index: 33°   Visibility: 1.7mi
Dew Point: 32°   Wind: 0mph
Humidity: 98%   Direction: NA
Pressure: 29.96"   Gusts: NA
Location:  38.4726°N, 79.0833°W
Report Text: KVBW 262015Z AUTO 00000KT 1 3/4SM OVC003 00/00 A2996 RMK AO2 P0001 T00030000
Loading
Personal Weather Stations






























Interactive Weather Map New forecast layout! Learn more

10-Day Weather Forecast

Advertisements
Track Severe Weather on mobile